createdAt,value
2023-05-25T00:02:06.785Z,95410.28
2023-05-25T00:04:35.477Z,95411.78
2023-05-25T00:07:03.395Z,95409.16
2023-05-25T00:09:30.939Z,95421.13
2023-05-25T00:11:59.692Z,95415.88
2023-05-25T00:14:27.176Z,95420.97
2023-05-25T00:16:55.338Z,95421.78
2023-05-25T00:19:25.009Z,95412.97
2023-05-25T00:21:52.522Z,95407.75
2023-05-25T00:24:20.026Z,95414.59
2023-05-25T00:26:47.538Z,95404.97
2023-05-25T00:29:15.024Z,95397.94
2023-05-25T00:31:42.586Z,95395.31
2023-05-25T00:34:10.124Z,95396.13
2023-05-25T00:36:38.969Z,95389.91
2023-05-25T00:39:06.454Z,95393.34
2023-05-25T00:41:34.850Z,95388.94
2023-05-25T00:44:02.432Z,95392.38
2023-05-25T00:46:30.547Z,95384.50
2023-05-25T00:48:58.059Z,95388.78
2023-05-25T00:51:26.578Z,95381.75
2023-05-25T00:53:55.482Z,95379.94
2023-05-25T00:56:25.019Z,95385.03
2023-05-25T00:58:54.265Z,95379.81
2023-05-25T01:01:23.205Z,95384.06
2023-05-25T01:03:53.980Z,95379.63
2023-05-25T01:06:22.661Z,95387.50
2023-05-25T01:08:52.894Z,95389.16
2023-05-25T01:11:25.648Z,95393.41
2023-05-25T01:13:54.307Z,95400.44
2023-05-25T01:16:22.026Z,95402.09
2023-05-25T01:18:52.649Z,95392.44
2023-05-25T01:21:23.933Z,95391.63
2023-05-25T01:23:53.868Z,95392.44
2023-05-25T01:26:22.654Z,95386.38
2023-05-25T01:28:52.426Z,95381.97
2023-05-25T01:31:21.844Z,95383.59
2023-05-25T01:33:50.936Z,95394.06
2023-05-25T01:36:18.706Z,95395.84
2023-05-25T01:38:47.620Z,95400.13
2023-05-25T01:41:15.086Z,95394.91
2023-05-25T01:43:42.647Z,95395.72
2023-05-25T01:46:13.204Z,95394.06
2023-05-25T01:48:44.069Z,95389.66
2023-05-25T01:51:18.134Z,95395.72
2023-05-25T01:53:52.301Z,95393.94
2023-05-25T01:56:20.617Z,95387.88
2023-05-25T01:58:48.528Z,95390.47
2023-05-25T02:01:16.761Z,95394.91
2023-05-25T02:03:45.225Z,95397.34
2023-05-25T02:06:12.780Z,95399.97
2023-05-25T02:08:40.445Z,95395.56
2023-05-25T02:11:09.265Z,95397.34
2023-05-25T02:13:37.891Z,95386.88
2023-05-25T02:16:05.527Z,95383.28
2023-05-25T02:18:34.257Z,95394.72
2023-05-25T02:21:01.762Z,95386.88
2023-05-25T02:23:29.288Z,95383.28
2023-05-25T02:25:56.737Z,95378.06
2023-05-25T02:28:25.842Z,95370.19
2023-05-25T02:30:53.350Z,95372.69
2023-05-25T02:33:20.860Z,95371.03
2023-05-25T02:35:48.360Z,95384.13
2023-05-25T02:38:15.967Z,95373.66
2023-05-25T02:40:43.427Z,95358.75
2023-05-25T02:43:11.054Z,95366.63
2023-05-25T02:45:39.842Z,95354.22
2023-05-25T02:48:07.377Z,95358.63
2023-05-25T02:50:34.933Z,95357.81
2023-05-25T02:53:02.502Z,95364.69
2023-05-25T02:55:30.029Z,95374.34
2023-05-25T02:57:58.225Z,95375.16
2023-05-25T03:00:25.731Z,95366.50
2023-05-25T03:02:54.635Z,95369.09
2023-05-25T03:05:22.263Z,95370.72
2023-05-25T03:07:49.760Z,95368.94
2023-05-25T03:10:17.212Z,95372.38
2023-05-25T03:12:44.720Z,95377.78
2023-05-25T03:15:13.184Z,95380.25
2023-05-25T03:17:40.885Z,95387.28
2023-05-25T03:20:12.019Z,95376.97
2023-05-25T03:22:39.528Z,95379.41
2023-05-25T03:25:07.554Z,95375.16
2023-05-25T03:27:35.112Z,95375.00
2023-05-25T03:30:02.655Z,95380.25
2023-05-25T03:32:30.174Z,95380.25
2023-05-25T03:34:57.646Z,95377.78
2023-05-25T03:37:26.504Z,95375.84
2023-05-25T03:39:54.007Z,95377.63
2023-05-25T03:42:21.491Z,95383.69
2023-05-25T03:44:48.993Z,95382.03
2023-05-25T03:47:16.468Z,95390.72
2023-05-25T03:49:43.984Z,95377.78
2023-05-25T03:52:11.484Z,95395.97
2023-05-25T03:54:40.300Z,95382.69
2023-05-25T03:57:07.840Z,95388.94
2023-05-25T03:59:35.584Z,95392.34
2023-05-25T04:02:03.059Z,95394.16
2023-05-25T04:04:30.615Z,95393.16
2023-05-25T04:06:58.097Z,95397.44
2023-05-25T04:09:25.680Z,95407.09
2023-05-25T04:11:54.532Z,95410.53
2023-05-25T04:14:21.992Z,95414.78
2023-05-25T04:16:49.521Z,95408.59
2023-05-25T04:19:17.096Z,95413.00
2023-05-25T04:21:44.574Z,95411.22
2023-05-25T04:24:12.049Z,95412.84
2023-05-25T04:26:40.330Z,95418.06
2023-05-25T04:29:10.449Z,95413.66
2023-05-25T04:31:39.177Z,95404.19
2023-05-25T04:34:06.719Z,95413.66
2023-05-25T04:36:34.199Z,95406.81
2023-05-25T04:39:04.233Z,95409.41
2023-05-25T04:41:31.710Z,95406.81
2023-05-25T04:44:09.008Z,95406.81
2023-05-25T04:46:39.103Z,95404.97
2023-05-25T04:49:08.351Z,95408.44
2023-05-25T04:51:36.983Z,95409.41
2023-05-25T04:54:04.630Z,95410.22
2023-05-25T04:56:32.113Z,95407.59
2023-05-25T04:58:59.638Z,95411.22
2023-05-25T05:01:27.320Z,95419.06
2023-05-25T05:03:56.333Z,95418.06
2023-05-25T05:06:25.707Z,95418.06
2023-05-25T05:08:53.213Z,95433.13
2023-05-25T05:11:20.718Z,95431.34
2023-05-25T05:13:48.211Z,95433.94
2023-05-25T05:16:15.843Z,95441.81
2023-05-25T05:18:43.386Z,95436.56
2023-05-25T05:21:12.479Z,95433.13
2023-05-25T05:23:39.937Z,95450.50
2023-05-25T05:26:11.021Z,95447.06
2023-05-25T05:28:38.662Z,95454.75
2023-05-25T05:31:06.846Z,95453.13
2023-05-25T05:33:34.472Z,95453.94
2023-05-25T05:36:02.734Z,95454.75
2023-05-25T05:38:31.577Z,95443.47
2023-05-25T05:40:59.440Z,95450.50
2023-05-25T05:43:26.966Z,95451.31
2023-05-25T05:45:54.491Z,95448.72
2023-05-25T05:48:22.062Z,95455.56
2023-05-25T05:50:49.675Z,95461.66
2023-05-25T05:53:17.338Z,95466.88
2023-05-25T05:55:48.488Z,95460.66
2023-05-25T05:58:17.746Z,95455.41
2023-05-25T06:00:45.237Z,95464.25
2023-05-25T06:03:12.763Z,95459.03
2023-05-25T06:05:40.315Z,95447.72
2023-05-25T06:08:09.320Z,95456.41
2023-05-25T06:10:36.798Z,95459.84
2023-05-25T06:13:07.356Z,95460.81
2023-05-25T06:15:35.149Z,95468.66
2023-05-25T06:18:03.257Z,95471.28
2023-05-25T06:20:30.980Z,95471.28
2023-05-25T06:22:58.495Z,95473.09
2023-05-25T06:25:26.026Z,95472.13
2023-05-25T06:27:53.487Z,95469.66
2023-05-25T06:30:22.384Z,95472.13
2023-05-25T06:32:49.907Z,95474.06
2023-05-25T06:35:19.806Z,95471.28
2023-05-25T06:37:47.869Z,95473.09
2023-05-25T06:40:15.384Z,95474.91
2023-05-25T06:42:42.837Z,95479.16
2023-05-25T06:45:11.107Z,95476.69
2023-05-25T06:47:40.055Z,95481.09
2023-05-25T06:50:08.324Z,95486.19
2023-05-25T06:52:35.826Z,95494.03
2023-05-25T06:55:03.924Z,95491.41
2023-05-25T06:57:31.420Z,95497.47
2023-05-25T06:59:58.928Z,95494.03
2023-05-25T07:02:26.500Z,95493.06
2023-05-25T07:04:55.384Z,95488.78
2023-05-25T07:07:23.300Z,95496.34
2023-05-25T07:09:51.068Z,95486.84
2023-05-25T07:12:18.581Z,95491.13
2023-05-25T07:14:48.154Z,95494.56
2023-05-25T07:17:15.760Z,95491.94
2023-05-25T07:19:43.441Z,95496.19
2023-05-25T07:22:12.485Z,95504.88
2023-05-25T07:24:39.927Z,95505.72
2023-05-25T07:27:08.210Z,95498.69
2023-05-25T07:29:35.708Z,95500.47
2023-05-25T07:32:03.171Z,95485.59
2023-05-25T07:34:30.642Z,95495.22
2023-05-25T07:36:58.131Z,95503.09
2023-05-25T07:39:27.107Z,95507.34
2023-05-25T07:41:54.585Z,95509.16
2023-05-25T07:44:22.068Z,95511.78
2023-05-25T07:46:49.554Z,95504.88
2023-05-25T07:49:17.353Z,95514.41
2023-05-25T07:51:45.625Z,95516.19
2023-05-25T07:54:13.201Z,95521.44
2023-05-25T07:56:42.511Z,95522.41
2023-05-25T07:59:10.124Z,95524.88
2023-05-25T08:01:38.933Z,95522.25
2023-05-25T08:04:06.659Z,95524.88
2023-05-25T08:06:34.383Z,95521.44
2023-05-25T08:09:01.965Z,95523.22
2023-05-25T08:11:29.450Z,95522.25
2023-05-25T08:14:00.175Z,95532.88
2023-05-25T08:16:27.933Z,95534.66
2023-05-25T08:18:55.540Z,95541.56
2023-05-25T08:23:51.293Z,95545.00
2023-05-25T08:26:34.888Z,95538.09
2023-05-25T08:29:07.820Z,95544.19
2023-05-25T08:31:35.796Z,95537.16
2023-05-25T08:34:03.430Z,95544.19
2023-05-25T08:36:34.047Z,95545.00
2023-05-25T08:39:01.677Z,95550.25
2023-05-25T08:41:29.243Z,95544.19
2023-05-25T08:43:57.037Z,95545.00
2023-05-25T08:46:29.942Z,95548.47
2023-05-25T08:49:00.011Z,95547.47
2023-05-25T08:51:27.620Z,95551.06
2023-05-25T08:53:56.548Z,95563.19
2023-05-25T08:56:27.503Z,95557.94
2023-05-25T08:58:58.979Z,95563.19
2023-05-25T09:01:29.775Z,95559.72
2023-05-25T09:03:57.825Z,95569.25
2023-05-25T09:06:26.969Z,95576.28
2023-05-25T09:08:54.596Z,95564.97
2023-05-25T09:11:36.045Z,95565.81
2023-05-25T09:14:07.248Z,95567.59
2023-05-25T09:16:38.037Z,95573.66
2023-05-25T09:19:05.571Z,95576.28
2023-05-25T09:21:33.290Z,95581.53
2023-05-25T09:24:00.923Z,95581.53
2023-05-25T09:26:28.550Z,95585.13
2023-05-25T09:28:56.496Z,95582.50
2023-05-25T09:31:24.718Z,95584.31
2023-05-25T09:34:00.100Z,95587.75
2023-05-25T09:36:28.006Z,95594.63
2023-05-25T09:38:56.511Z,95600.84
2023-05-25T09:41:27.568Z,95598.22
2023-05-25T09:44:06.526Z,95602.47
2023-05-25T09:46:39.212Z,95607.72
2023-05-25T09:49:09.322Z,95605.25
2023-05-25T09:51:37.108Z,95599.03
2023-05-25T09:54:05.917Z,95607.88
2023-05-25T09:56:33.908Z,95600.84
2023-05-25T09:59:01.437Z,95599.19
2023-05-25T10:01:29.060Z,95590.38
2023-05-25T10:04:04.219Z,95609.66
2023-05-25T10:06:39.929Z,95611.31
2023-05-25T10:09:07.672Z,95605.25
2023-05-25T10:11:36.095Z,95600.84
2023-05-25T10:14:06.736Z,95609.66
2023-05-25T10:16:35.124Z,95613.94
2023-05-25T10:19:05.700Z,95612.13
2023-05-25T10:21:34.382Z,95612.97
2023-05-25T10:24:05.990Z,95613.94
2023-05-25T10:26:36.634Z,95606.88
2023-05-25T10:29:05.404Z,95612.97
2023-05-25T10:31:34.118Z,95612.13
2023-05-25T10:34:02.283Z,95615.56
2023-05-25T10:36:30.768Z,95613.78
2023-05-25T10:38:58.973Z,95609.50
2023-05-25T10:41:27.901Z,95606.88
2023-05-25T10:43:55.389Z,95599.03
2023-05-25T10:46:23.101Z,95599.84
2023-05-25T10:48:51.805Z,95603.47
2023-05-25T10:51:20.579Z,95612.97
2023-05-25T10:53:49.770Z,95602.47
2023-05-25T10:56:17.402Z,95611.31
2023-05-25T10:58:47.436Z,95606.09
2023-05-25T11:01:16.566Z,95604.28
2023-05-25T11:03:57.528Z,95600.84
2023-05-25T11:06:45.092Z,95598.22
2023-05-25T11:09:24.768Z,95608.72
2023-05-25T11:12:03.559Z,95611.31
2023-05-25T11:14:33.395Z,95608.72
2023-05-25T11:17:08.012Z,95606.88
2023-05-25T11:19:47.918Z,95613.13
2023-05-25T11:22:20.297Z,95609.50
2023-05-25T11:24:47.830Z,95610.50
2023-05-25T11:27:15.483Z,95607.03
2023-05-25T11:29:44.623Z,95607.88
2023-05-25T11:32:16.149Z,95599.19
2023-05-25T11:34:46.565Z,95593.13
2023-05-25T11:37:17.028Z,95600.03
2023-05-25T11:39:47.671Z,95599.19
2023-05-25T11:42:16.638Z,95595.59
2023-05-25T11:44:46.072Z,95596.56
2023-05-25T11:47:14.588Z,95593.78
2023-05-25T11:49:44.200Z,95585.13
2023-05-25T11:52:11.863Z,95583.47
2023-05-25T11:54:41.197Z,95590.38
2023-05-25T11:57:14.892Z,95590.38
2023-05-25T11:59:48.634Z,95585.94
2023-05-25T12:02:17.908Z,95584.13
2023-05-25T12:04:53.812Z,95582.50
2023-05-25T12:07:21.356Z,95578.06
2023-05-25T12:09:48.913Z,95581.53
2023-05-25T12:12:16.469Z,95577.28
2023-05-25T12:14:47.871Z,95578.91
2023-05-25T12:17:17.488Z,95581.53
2023-05-25T12:19:45.585Z,95578.91
2023-05-25T12:22:13.936Z,95575.44
2023-05-25T12:24:41.755Z,95580.69
2023-05-25T12:27:17.538Z,95576.44
2023-05-25T12:29:46.914Z,95573.66
2023-05-25T12:32:14.668Z,95574.66
2023-05-25T12:34:44.483Z,95572.03
2023-05-25T12:37:18.949Z,95577.28
2023-05-25T12:39:46.473Z,95574.66
2023-05-25T12:42:15.299Z,95579.91
2023-05-25T12:44:43.273Z,95570.22
2023-05-25T12:47:11.284Z,95573.81
2023-05-25T12:49:39.002Z,95574.66
2023-05-25T12:52:08.090Z,95564.16
2023-05-25T12:54:36.408Z,95569.41
2023-05-25T12:57:05.743Z,95564.97
2023-05-25T12:59:33.653Z,95558.09
2023-05-25T13:02:01.280Z,95556.31
2023-05-25T13:04:28.849Z,95556.31
2023-05-25T13:06:56.646Z,95558.09
2023-05-25T13:09:26.911Z,95551.22
2023-05-25T13:11:55.756Z,95559.72
2023-05-25T13:14:23.753Z,95549.41
2023-05-25T13:16:51.573Z,95546.78
2023-05-25T13:19:19.686Z,95545.00
2023-05-25T13:21:49.160Z,95554.50
2023-05-25T13:24:17.412Z,95544.84
2023-05-25T13:26:48.084Z,95537.97
2023-05-25T13:29:16.692Z,95538.78
2023-05-25T13:31:44.234Z,95532.75
2023-05-25T13:34:11.828Z,95533.53
2023-05-25T13:36:39.314Z,95531.75
2023-05-25T13:39:07.365Z,95538.66
2023-05-25T13:41:34.971Z,95540.44
2023-05-25T13:44:04.003Z,95529.97
2023-05-25T13:46:35.070Z,95540.28
2023-05-25T13:49:03.594Z,95532.75
2023-05-25T13:51:31.231Z,95539.59
2023-05-25T13:53:58.707Z,95537.00
2023-05-25T13:56:26.187Z,95539.59
2023-05-25T13:58:53.996Z,95528.31
2023-05-25T14:01:22.882Z,95536.16
2023-05-25T14:03:50.666Z,95531.75
2023-05-25T14:06:18.288Z,95526.50
2023-05-25T14:08:45.744Z,95529.97
2023-05-25T14:11:13.240Z,95531.75
2023-05-25T14:13:40.736Z,95528.16
2023-05-25T14:16:08.954Z,95534.22
2023-05-25T14:18:37.963Z,95529.97
2023-05-25T14:21:05.490Z,95531.59
2023-05-25T14:23:33.162Z,95521.09
2023-05-25T14:26:00.642Z,95524.56
2023-05-25T14:28:28.139Z,95517.69
2023-05-25T14:30:56.077Z,95518.47
2023-05-25T14:33:23.644Z,95530.63
2023-05-25T14:35:52.761Z,95525.56
2023-05-25T14:38:20.245Z,95526.34
2023-05-25T14:40:48.020Z,95520.31
2023-05-25T14:43:15.483Z,95523.59
2023-05-25T14:45:43.228Z,95526.34
2023-05-25T14:48:16.653Z,95526.34
2023-05-25T14:50:45.066Z,95522.94
2023-05-25T14:53:13.882Z,95520.97
2023-05-25T14:55:41.764Z,95513.94
2023-05-25T14:58:09.490Z,95515.72
2023-05-25T15:00:37.133Z,95524.44
2023-05-25T15:03:04.693Z,95522.75
2023-05-25T15:05:32.275Z,95524.44
2023-05-25T15:07:59.972Z,95527.03
2023-05-25T15:10:29.688Z,95530.47
2023-05-25T15:12:57.183Z,95529.66
2023-05-25T15:15:24.674Z,95527.03
2023-05-25T15:17:52.203Z,95522.75
2023-05-25T15:20:19.901Z,95523.44
2023-05-25T15:22:47.548Z,95527.84
2023-05-25T15:25:19.047Z,95519.97
2023-05-25T15:27:53.505Z,95533.09
2023-05-25T15:30:21.131Z,95526.22
2023-05-25T15:32:48.627Z,95527.03
2023-05-25T15:35:16.613Z,95527.03
2023-05-25T15:37:44.132Z,95521.81
2023-05-25T15:40:12.164Z,95524.44
2023-05-25T15:42:39.657Z,95520.97
2023-05-25T15:45:09.514Z,95515.72
2023-05-25T15:47:37.075Z,95515.72
2023-05-25T15:50:04.635Z,95514.06
2023-05-25T15:52:32.120Z,95514.06
2023-05-25T15:54:59.608Z,95517.53
2023-05-25T15:57:27.086Z,95519.31
2023-05-25T15:59:54.892Z,95512.28
2023-05-25T16:02:23.790Z,95515.72
2023-05-25T16:04:51.268Z,95512.28
2023-05-25T16:07:18.791Z,95511.47
2023-05-25T16:09:46.260Z,95511.47
2023-05-25T16:12:13.758Z,95506.22
2023-05-25T16:14:41.643Z,95515.72
2023-05-25T16:17:09.124Z,95511.47
2023-05-25T16:19:37.929Z,95520.97
2023-05-25T16:22:05.719Z,95521.81
2023-05-25T16:24:33.197Z,95525.38
2023-05-25T16:27:00.790Z,95521.81
2023-05-25T16:29:28.355Z,95513.13
2023-05-25T16:31:56.704Z,95520.97
2023-05-25T16:34:24.215Z,95524.44
2023-05-25T16:36:53.077Z,95514.75
2023-05-25T16:39:20.536Z,95522.59
2023-05-25T16:41:50.584Z,95520.81
2023-05-25T16:44:18.430Z,95521.81
2023-05-25T16:46:45.940Z,95517.53
2023-05-25T16:49:13.422Z,95529.66
2023-05-25T16:51:40.902Z,95526.22
2023-05-25T16:54:09.766Z,95521.81
2023-05-25T16:56:37.524Z,95529.66
2023-05-25T16:59:05.020Z,95533.91
2023-05-25T17:01:32.551Z,95528.00
2023-05-25T17:04:00.172Z,95524.44
2023-05-25T17:06:27.773Z,95524.44
2023-05-25T17:08:55.721Z,95523.59
2023-05-25T17:11:26.599Z,95522.75
2023-05-25T17:13:54.183Z,95526.22
2023-05-25T17:16:21.895Z,95525.38
2023-05-25T17:18:49.450Z,95533.25
2023-05-25T17:21:16.912Z,95528.00
2023-05-25T17:23:44.409Z,95526.34
2023-05-25T17:26:11.886Z,95531.47
2023-05-25T17:28:40.706Z,95530.63
2023-05-25T17:31:09.472Z,95526.22
2023-05-25T17:33:38.727Z,95528.00
2023-05-25T17:36:06.381Z,95528.00
2023-05-25T17:38:36.914Z,95521.94
2023-05-25T17:41:04.426Z,95527.19
2023-05-25T17:43:31.907Z,95521.09
2023-05-25T17:46:00.825Z,95528.16
2023-05-25T17:48:28.364Z,95528.97
2023-05-25T17:50:55.830Z,95532.41
2023-05-25T17:53:23.323Z,95528.16
2023-05-25T17:55:50.842Z,95526.34
2023-05-25T17:58:18.318Z,95532.41
2023-05-25T18:00:45.867Z,95529.78
2023-05-25T18:03:14.841Z,95528.97
2023-05-25T18:05:42.495Z,95541.94
2023-05-25T18:08:10.048Z,95538.47
2023-05-25T18:10:37.537Z,95544.56
2023-05-25T18:13:05.018Z,95548.97
2023-05-25T18:15:32.497Z,95548.97
2023-05-25T18:18:00.641Z,95552.41
2023-05-25T18:20:29.674Z,95548.13
2023-05-25T18:22:57.191Z,95560.28
2023-05-25T18:25:24.654Z,95554.72
2023-05-25T18:27:52.127Z,95558.03
2023-05-25T18:30:19.709Z,95564.38
2023-05-25T18:32:47.231Z,95555.66
2023-05-25T18:35:15.466Z,95562.00
2023-05-25T18:37:44.333Z,95561.78
2023-05-25T18:40:12.929Z,95559.78
2023-05-25T18:42:40.586Z,95567.28
2023-05-25T18:45:08.548Z,95571.19
2023-05-25T18:47:36.332Z,95562.78
2023-05-25T18:50:04.408Z,95565.56
2023-05-25T18:52:31.909Z,95569.19
2023-05-25T18:55:01.412Z,95563.25
2023-05-25T18:57:29.582Z,95569.47
2023-05-25T18:59:57.105Z,95570.28
2023-05-25T19:02:24.656Z,95571.25
2023-05-25T19:04:52.991Z,95572.91
2023-05-25T19:07:20.553Z,95577.16
2023-05-25T19:09:48.725Z,95574.53
2023-05-25T19:12:17.601Z,95579.66
2023-05-25T19:14:45.103Z,95577.03
2023-05-25T19:17:12.581Z,95588.19
2023-05-25T19:19:40.170Z,95590.81
2023-05-25T19:22:07.867Z,95592.44
2023-05-25T19:24:35.348Z,95599.34
2023-05-25T19:27:02.854Z,95595.72
2023-05-25T19:29:31.734Z,95607.03
2023-05-25T19:31:59.261Z,95610.47
2023-05-25T19:34:27.081Z,95611.31
2023-05-25T19:37:07.527Z,95610.31
2023-05-25T19:39:38.264Z,95610.31
2023-05-25T19:42:06.355Z,95609.38
2023-05-25T19:44:35.171Z,95625.88
2023-05-25T19:47:02.657Z,95611.97
2023-05-25T19:49:30.110Z,95622.97
2023-05-25T19:51:57.649Z,95614.81
2023-05-25T19:54:25.117Z,95623.47
2023-05-25T19:56:52.778Z,95634.97
2023-05-25T19:59:21.234Z,95629.72
2023-05-25T20:01:50.163Z,95633.28
2023-05-25T20:04:17.797Z,95633.97
2023-05-25T20:06:45.401Z,95636.59
2023-05-25T20:09:14.231Z,95637.56
2023-05-25T20:11:41.872Z,95639.53
2023-05-25T20:14:09.610Z,95646.56
2023-05-25T20:16:37.358Z,95648.34
2023-05-25T20:19:07.536Z,95644.09
2023-05-25T20:21:36.539Z,95651.97
2023-05-25T20:24:04.123Z,95649.47
2023-05-25T20:26:31.773Z,95645.38
2023-05-25T20:28:59.248Z,95654.19
2023-05-25T20:31:26.796Z,95651.75
2023-05-25T20:33:54.341Z,95651.59
2023-05-25T20:36:23.278Z,95651.41
2023-05-25T20:38:50.772Z,95649.47
2023-05-25T20:41:18.385Z,95656.53
2023-05-25T20:43:45.978Z,95654.03
2023-05-25T20:46:14.108Z,95660.13
2023-05-25T20:48:41.697Z,95657.66
2023-05-25T20:51:11.439Z,95663.72
2023-05-25T20:53:40.461Z,95654.19
2023-05-25T20:56:07.946Z,95653.38
2023-05-25T20:58:37.391Z,95648.97
2023-05-25T21:01:05.967Z,95647.28
2023-05-25T21:03:33.669Z,95656.81
2023-05-25T21:06:01.530Z,95656.81
2023-05-25T21:08:29.008Z,95656.00
2023-05-25T21:10:57.807Z,95658.16
2023-05-25T21:13:25.327Z,95657.56
2023-05-25T21:15:52.870Z,95648.88
2023-05-25T21:18:20.453Z,95656.88
2023-05-25T21:20:47.960Z,95659.66
2023-05-25T21:23:15.484Z,95664.06
2023-05-25T21:25:43.006Z,95660.94
2023-05-25T21:28:11.945Z,95660.94
2023-05-25T21:30:39.417Z,95661.78
2023-05-25T21:33:06.903Z,95653.25
2023-05-25T21:35:34.470Z,95656.81
2023-05-25T21:38:01.936Z,95657.78
2023-05-25T21:40:29.460Z,95663.03
2023-05-25T21:42:56.987Z,95665.81
2023-05-25T21:45:25.896Z,95663.19
2023-05-25T21:47:53.411Z,95656.31
2023-05-25T21:50:20.991Z,95658.94
2023-05-25T21:52:48.472Z,95661.56
2023-05-25T21:55:15.948Z,95666.78
2023-05-25T21:57:43.879Z,95662.50
2023-05-25T22:00:12.675Z,95661.69
2023-05-25T22:02:41.935Z,95662.50
2023-05-25T22:05:09.502Z,95657.28
2023-05-25T22:07:36.987Z,95658.25
2023-05-25T22:10:04.780Z,95663.50
2023-05-25T22:12:32.261Z,95656.44
2023-05-25T22:14:59.797Z,95662.66
2023-05-25T22:17:27.319Z,95657.56
2023-05-25T22:20:07.358Z,95664.47
2023-05-25T22:22:36.540Z,95660.19
2023-05-25T22:25:04.208Z,95661.84
2023-05-25T22:27:31.744Z,95665.41
2023-05-25T22:29:59.286Z,95662.78
2023-05-25T22:32:27.526Z,95662.00
2023-05-25T22:34:56.390Z,95660.34
2023-05-25T22:37:23.893Z,95664.63
2023-05-25T22:39:51.341Z,95661.16
2023-05-25T22:42:18.877Z,95659.38
2023-05-25T22:44:46.499Z,95656.75
2023-05-25T22:47:14.358Z,95657.56
2023-05-25T22:49:43.460Z,95653.31
2023-05-25T22:52:13.219Z,95655.94
2023-05-25T22:54:40.803Z,95658.53
2023-05-25T22:57:09.510Z,95654.13
2023-05-25T22:59:37.122Z,95661.16
2023-05-25T23:02:04.840Z,95660.19
2023-05-25T23:04:32.406Z,95645.44
2023-05-25T23:06:59.888Z,95650.69
2023-05-25T23:09:28.754Z,95648.91
2023-05-25T23:11:56.224Z,95650.69
2023-05-25T23:14:23.770Z,95650.69
2023-05-25T23:16:51.255Z,95645.44
2023-05-25T23:19:19.922Z,95645.59
2023-05-25T23:21:48.245Z,95642.16
2023-05-25T23:24:15.772Z,95647.41
2023-05-25T23:26:44.597Z,95652.63
2023-05-25T23:29:12.164Z,95641.31
2023-05-25T23:31:39.762Z,95639.53
2023-05-25T23:34:07.219Z,95642.16
2023-05-25T23:36:34.733Z,95649.19
2023-05-25T23:39:02.324Z,95650.97
2023-05-25T23:41:29.799Z,95640.50
2023-05-25T23:43:58.747Z,95632.63
2023-05-25T23:46:26.357Z,95648.34
2023-05-25T23:48:53.890Z,95636.91
2023-05-25T23:51:21.366Z,95631.84
2023-05-25T23:53:48.831Z,95634.47
2023-05-25T23:56:16.341Z,95622.31
2023-05-25T23:58:43.924Z,95624.09
